San Carlos Park, Florida
Current Conditions -  °F | °C
As of 5:53 PM on Wednesday 26 Nov 2014 (Local Time) from KFMY Reporting Station
Clear Clear  
Wind Chill: 59°   Ceiling: Unl
Heat Index: 59°   Visibility: 10mi
Dew Point: 49°   Wind: 7mph
Humidity: 69%   Direction: 360°N
Pressure: 30.16"   Gusts: NA
Location:  26.6372°N, 81.8725°W
Report Text: KFMY 262253Z AUTO 36006KT 10SM CLR 15/09 A3016 RMK AO2 SLP215 T01500094
Loading
Personal Weather Stations






























Interactive Weather Map New forecast layout! Learn more

10-Day Weather Forecast

Advertisements
Track Severe Weather on mobile